Pranchita, Brazil
Current Conditions -  °F | °C
As of 5:00 PM on Friday 24 Oct 2014 (Local Time) from SARI Reporting Station
Scattered Clouds Scattered Clouds  
Wind Chill: 91°   Ceiling: Unl
Heat Index: 94°   Visibility: 6mi
Dew Point: 66°   Wind: 9mph
Humidity: 43%   Direction: 360°N
Pressure: 29.85"   Gusts: NA
Location:  26.02°S, 53.74°W
Report Text: SARI 241900Z 36008KT 9999 FEW050TCU SCT100 33/19 Q1011
Loading
Personal Weather Stations






























Interactive Weather Map
Tropical Storm Tracking
New forecast layout! Learn more

10-Day Weather Forecast

Advertisements
Track Severe Weather on mobile